createdAt,value
2018-04-13T00:02:11.997Z,68.62
2018-04-13T00:04:41.875Z,68.93
2018-04-13T00:07:10.992Z,68.98
2018-04-13T00:09:40.860Z,69.00
2018-04-13T00:12:09.977Z,69.18
2018-04-13T00:14:39.080Z,69.03
2018-04-13T00:17:08.197Z,69.30
2018-04-13T00:19:38.062Z,68.83
2018-04-13T00:22:07.192Z,69.07
2018-04-13T00:24:37.066Z,68.77
2018-04-13T00:27:06.185Z,68.58
2018-04-13T00:29:35.303Z,69.80
2018-04-13T00:32:05.183Z,69.86
2018-04-13T00:34:34.294Z,70.48
2018-04-13T00:37:04.176Z,69.67
2018-04-13T00:39:33.280Z,69.68
2018-04-13T00:42:02.405Z,70.13
2018-04-13T00:44:32.268Z,70.46
2018-04-13T00:47:01.380Z,71.24
2018-04-13T00:49:30.500Z,71.04
2018-04-13T00:52:00.360Z,71.29
2018-04-13T00:54:29.493Z,71.33
2018-04-13T00:56:58.606Z,70.15
2018-04-13T00:59:28.485Z,70.58
2018-04-13T01:01:57.588Z,70.48
2018-04-13T01:04:26.719Z,70.60
2018-04-13T01:06:57.706Z,70.10
2018-04-13T01:09:26.828Z,70.40
2018-04-13T01:11:57.734Z,70.18
2018-04-13T01:14:26.871Z,70.28
2018-04-13T01:16:57.774Z,70.68
2018-04-13T01:19:26.882Z,70.30
2018-04-13T01:21:57.694Z,70.26
2018-04-13T01:24:26.818Z,70.56
2018-04-13T01:26:56.940Z,70.86
2018-04-13T01:29:26.841Z,71.07
2018-04-13T01:31:57.963Z,70.26
2018-04-13T01:34:27.085Z,70.51
2018-04-13T01:36:57.685Z,70.62
2018-04-13T01:39:26.816Z,71.06
2018-04-13T01:41:56.929Z,71.27
2018-04-13T01:44:26.808Z,71.12
2018-04-13T01:46:57.760Z,70.58
2018-04-13T01:49:27.380Z,70.40
2018-04-13T01:51:58.289Z,70.69
2018-04-13T01:54:28.332Z,71.19
2018-04-13T01:56:57.470Z,71.62
2018-04-13T01:59:26.570Z,71.73
2018-04-13T02:01:56.935Z,71.95
2018-04-13T02:04:26.035Z,71.28
2018-04-13T02:06:55.179Z,71.64
2018-04-13T02:09:24.264Z,72.03
2018-04-13T02:11:53.395Z,72.24
2018-04-13T02:14:22.515Z,71.53
2018-04-13T02:16:51.758Z,71.45
2018-04-13T02:19:20.894Z,71.10
2018-04-13T02:21:49.988Z,70.63
2018-04-13T02:24:19.887Z,70.82
2018-04-13T02:26:48.996Z,70.71
2018-04-13T02:29:18.109Z,70.96
2018-04-13T02:31:48.012Z,70.94
2018-04-13T02:34:17.115Z,71.32
2018-04-13T02:36:46.224Z,70.32
2018-04-13T02:39:15.309Z,70.18
2018-04-13T02:41:44.433Z,70.03
2018-04-13T02:44:13.550Z,70.96
2018-04-13T02:46:42.689Z,71.54
2018-04-13T02:49:12.570Z,71.98
2018-04-13T02:51:41.682Z,72.00
2018-04-13T02:54:10.784Z,72.52
2018-04-13T02:56:40.656Z,72.67
2018-04-13T02:59:09.766Z,73.23
2018-04-13T03:01:38.886Z,72.99
2018-04-13T03:04:08.747Z,73.11
2018-04-13T03:06:37.861Z,73.06
2018-04-13T03:09:06.992Z,73.45
2018-04-13T03:11:36.880Z,72.16
2018-04-13T03:14:05.978Z,72.76
2018-04-13T03:16:35.097Z,72.47
2018-04-13T03:19:04.221Z,71.09
2018-04-13T03:21:34.444Z,72.29
2018-04-13T03:24:03.560Z,71.61
2018-04-13T03:26:32.685Z,71.63
2018-04-13T03:29:02.551Z,71.83
2018-04-13T03:31:31.674Z,72.11
2018-04-13T03:34:00.805Z,72.33
2018-04-13T03:36:29.902Z,72.20
2018-04-13T03:38:59.787Z,72.59
2018-04-13T03:41:29.672Z,72.67
2018-04-13T03:43:58.809Z,72.14
2018-04-13T03:46:27.916Z,72.63
2018-04-13T03:48:57.885Z,72.47
2018-04-13T03:51:27.006Z,72.72
2018-04-13T03:53:57.816Z,71.55
2018-04-13T03:56:26.914Z,72.02
2018-04-13T03:58:57.852Z,71.26
2018-04-13T04:01:26.952Z,71.69
2018-04-13T04:03:58.183Z,71.34
2018-04-13T04:06:27.304Z,71.37
2018-04-13T04:08:57.914Z,70.87
2018-04-13T04:11:27.034Z,71.37
2018-04-13T04:13:57.841Z,71.93
2018-04-13T04:16:27.024Z,70.88
2018-04-13T04:18:57.850Z,70.70
2018-04-13T04:21:44.922Z,71.03
2018-04-13T04:24:31.575Z,71.25
2018-04-13T04:27:01.481Z,71.91
2018-04-13T04:29:30.600Z,72.26
2018-04-13T04:32:00.506Z,71.92
2018-04-13T04:34:29.606Z,71.58
2018-04-13T04:36:59.504Z,71.44
2018-04-13T04:39:28.603Z,71.28
2018-04-13T04:41:57.730Z,71.36
2018-04-13T04:44:26.850Z,71.69
2018-04-13T04:46:57.204Z,71.51
2018-04-13T04:49:26.321Z,71.12
2018-04-13T04:51:55.433Z,71.82
2018-04-13T04:54:25.315Z,72.20
2018-04-13T04:56:54.423Z,71.73
2018-04-13T04:59:23.511Z,71.67
2018-04-13T05:01:52.625Z,72.07
2018-04-13T05:04:22.484Z,72.16
2018-04-13T05:06:51.623Z,71.59
2018-04-13T05:09:21.498Z,71.66
2018-04-13T05:11:50.655Z,71.58
2018-04-13T05:14:19.727Z,71.99
2018-04-13T05:16:49.613Z,72.90
2018-04-13T05:19:18.716Z,72.09
2018-04-13T05:21:47.817Z,71.82
2018-04-13T05:24:17.688Z,72.09
2018-04-13T05:26:46.821Z,72.39
2018-04-13T05:29:15.943Z,72.56
2018-04-13T05:31:45.821Z,71.76
2018-04-13T05:34:14.939Z,71.52
2018-04-13T05:36:44.835Z,72.22
2018-04-13T05:39:13.929Z,72.35
2018-04-13T05:41:43.835Z,71.80
2018-04-13T05:44:12.958Z,72.65
2018-04-13T05:46:42.855Z,72.89
2018-04-13T05:49:11.965Z,72.68
2018-04-13T05:51:41.056Z,72.13
2018-04-13T05:54:10.188Z,72.35
2018-04-13T05:56:39.297Z,72.60
2018-04-13T05:59:08.449Z,72.50
2018-04-13T06:01:37.553Z,72.75
2018-04-13T06:04:06.669Z,72.42
2018-04-13T06:06:35.783Z,72.80
2018-04-13T06:09:04.895Z,72.55
2018-04-13T06:11:34.024Z,72.35
2018-04-13T06:14:03.128Z,72.70
2018-04-13T06:16:32.246Z,72.72
2018-04-13T06:19:01.355Z,72.73
2018-04-13T06:21:30.488Z,72.79
2018-04-13T06:23:59.621Z,72.70
2018-04-13T06:26:28.721Z,72.27
2018-04-13T06:28:57.816Z,72.14
2018-04-13T06:31:26.956Z,71.44
2018-04-13T06:33:58.060Z,70.87
2018-04-13T06:36:27.196Z,70.65
2018-04-13T06:38:58.119Z,70.03
2018-04-13T06:41:27.214Z,69.94
2018-04-13T06:43:58.223Z,69.94
2018-04-13T06:46:27.351Z,69.60
2018-04-13T06:48:58.058Z,69.78
2018-04-13T06:51:27.180Z,69.77
2018-04-13T06:53:58.133Z,69.65
2018-04-13T06:56:27.259Z,69.16
2018-04-13T06:58:58.103Z,69.13
2018-04-13T07:01:27.203Z,69.33
2018-04-13T07:03:57.308Z,69.06
2018-04-13T07:06:27.307Z,69.01
2018-04-13T07:08:57.304Z,68.86
2018-04-13T07:11:26.406Z,68.88
2018-04-13T07:13:55.516Z,69.02
2018-04-13T07:16:24.632Z,69.05
2018-04-13T07:18:53.764Z,69.04
2018-04-13T07:21:23.628Z,69.12
2018-04-13T07:23:52.750Z,68.87
2018-04-13T07:26:21.839Z,69.04
2018-04-13T07:28:50.964Z,69.15
2018-04-13T07:31:20.060Z,69.03
2018-04-13T07:33:49.209Z,69.02
2018-04-13T07:36:18.528Z,69.20
2018-04-13T07:38:48.201Z,69.26
2018-04-13T07:41:17.313Z,69.14
2018-04-13T07:43:46.419Z,69.04
2018-04-13T07:46:15.551Z,69.19
2018-04-13T07:48:44.685Z,68.90
2018-04-13T07:51:13.801Z,69.10
2018-04-13T07:53:43.673Z,69.06
2018-04-13T07:56:13.569Z,69.03
2018-04-13T07:58:43.110Z,69.11
2018-04-13T08:01:11.819Z,69.07
2018-04-13T08:03:41.256Z,69.08
2018-04-13T08:06:10.812Z,68.92
2018-04-13T08:08:39.967Z,68.99
2018-04-13T08:11:09.093Z,69.17
2018-04-13T08:13:38.197Z,69.04
2018-04-13T08:16:07.320Z,69.22
2018-04-13T08:18:36.436Z,68.90
2018-04-13T08:21:05.542Z,69.19
2018-04-13T08:23:34.649Z,69.68
2018-04-13T08:26:04.564Z,69.42
2018-04-13T08:28:33.672Z,69.52
2018-04-13T08:31:02.791Z,69.65
2018-04-13T08:33:32.680Z,70.31
2018-04-13T08:36:01.802Z,70.58
2018-04-13T08:38:31.682Z,71.39
2018-04-13T08:41:00.812Z,72.39
2018-04-13T08:43:30.749Z,73.20
2018-04-13T08:45:59.809Z,74.31
2018-04-13T08:48:29.747Z,75.18
2018-04-13T08:50:58.864Z,75.72
2018-04-13T08:53:27.997Z,76.09
2018-04-13T08:55:57.437Z,75.82
2018-04-13T08:58:26.557Z,75.38
2018-04-13T09:00:55.706Z,75.70
2018-04-13T09:03:25.593Z,75.53
2018-04-13T09:05:54.748Z,75.55
2018-04-13T09:08:23.868Z,75.05
2018-04-13T09:10:52.999Z,75.22
2018-04-13T09:13:22.870Z,75.13
2018-04-13T09:15:51.985Z,75.56
2018-04-13T09:18:21.099Z,75.38
2018-04-13T09:20:50.269Z,75.02
2018-04-13T09:23:19.350Z,75.18
2018-04-13T09:25:48.465Z,75.38
2018-04-13T09:28:18.003Z,75.09
2018-04-13T09:30:47.130Z,75.04
2018-04-13T09:33:16.261Z,74.98
2018-04-13T09:35:46.159Z,74.84
2018-04-13T09:38:15.277Z,75.21
2018-04-13T09:40:45.143Z,75.72
2018-04-13T09:43:14.257Z,76.15
2018-04-13T09:45:43.352Z,76.41
2018-04-13T09:48:12.458Z,76.65
2018-04-13T09:50:42.348Z,76.82
2018-04-13T09:53:11.477Z,76.70
2018-04-13T09:55:41.388Z,76.86
2018-04-13T09:58:11.255Z,76.79
2018-04-13T10:00:40.347Z,77.20
2018-04-13T10:03:15.027Z,77.00
2018-04-13T10:05:44.150Z,77.11
2018-04-13T10:08:13.259Z,77.11
2018-04-13T10:10:42.387Z,77.21
2018-04-13T10:13:11.466Z,77.19
2018-04-13T10:15:40.584Z,77.06
2018-04-13T10:18:09.697Z,77.58
2018-04-13T10:20:38.790Z,77.88
2018-04-13T10:23:07.920Z,78.02
2018-04-13T10:25:37.021Z,78.08
2018-04-13T10:28:06.143Z,78.16
2018-04-13T10:30:35.296Z,78.14
2018-04-13T10:33:04.413Z,77.94
2018-04-13T10:35:33.545Z,78.29
2018-04-13T10:38:03.452Z,78.37
2018-04-13T10:40:33.326Z,78.65
2018-04-13T10:43:02.441Z,78.66
2018-04-13T10:45:31.541Z,78.96
2018-04-13T10:48:01.461Z,79.68
2018-04-13T10:50:31.321Z,79.94
2018-04-13T10:53:00.453Z,80.07
2018-04-13T10:55:29.573Z,80.10
2018-04-13T10:57:59.437Z,80.12
2018-04-13T11:00:28.552Z,80.02
2018-04-13T11:02:57.669Z,80.61
2018-04-13T11:05:27.556Z,80.37
2018-04-13T11:07:58.464Z,80.41
2018-04-13T11:10:27.588Z,80.41
2018-04-13T11:12:57.690Z,80.13
2018-04-13T11:15:26.788Z,80.56
2018-04-13T11:17:55.919Z,80.31
2018-04-13T11:20:25.806Z,80.17
2018-04-13T11:22:54.932Z,80.08
2018-04-13T11:25:24.830Z,80.00
2018-04-13T11:27:54.716Z,80.14
2018-04-13T11:30:23.815Z,79.92
2018-04-13T11:32:52.970Z,79.80
2018-04-13T11:35:22.093Z,79.99
2018-04-13T11:37:51.240Z,80.49
2018-04-13T11:40:20.380Z,80.21
2018-04-13T11:42:49.473Z,80.11
2018-04-13T11:45:18.610Z,80.32
2018-04-13T11:47:48.506Z,80.19
2018-04-13T11:50:18.395Z,80.34
2018-04-13T11:52:47.501Z,79.87
2018-04-13T11:55:16.606Z,80.03
2018-04-13T11:57:46.517Z,79.79
2018-04-13T12:00:16.386Z,80.07
2018-04-13T12:02:45.535Z,80.30
2018-04-13T12:05:15.393Z,80.10
2018-04-13T12:07:44.515Z,80.22
2018-04-13T12:10:13.631Z,80.28
2018-04-13T12:12:43.548Z,81.07
2018-04-13T12:15:13.424Z,81.32
2018-04-13T12:17:42.558Z,80.92
2018-04-13T12:20:12.418Z,80.96
2018-04-13T12:22:41.559Z,80.77
2018-04-13T12:25:11.441Z,80.75
2018-04-13T12:27:40.550Z,80.96
2018-04-13T12:30:09.696Z,81.15
2018-04-13T12:32:38.798Z,80.78
2018-04-13T12:35:07.950Z,81.46
2018-04-13T12:37:37.841Z,81.56
2018-04-13T12:40:06.970Z,81.83
2018-04-13T12:42:36.865Z,81.75
2018-04-13T12:45:05.992Z,81.72
2018-04-13T12:47:35.861Z,81.78
2018-04-13T12:50:05.766Z,81.52
2018-04-13T12:52:34.876Z,80.87
2018-04-13T12:55:05.032Z,80.30
2018-04-13T12:57:33.934Z,80.54
2018-04-13T13:00:03.058Z,80.69
2018-04-13T13:02:32.178Z,80.30
2018-04-13T13:05:01.321Z,80.52
2018-04-13T13:07:30.442Z,80.52
2018-04-13T13:09:59.541Z,80.53
2018-04-13T13:12:28.660Z,80.27
2018-04-13T13:14:58.541Z,80.01
2018-04-13T13:17:27.665Z,80.19
2018-04-13T13:19:57.796Z,79.83
2018-04-13T13:22:26.917Z,80.18
2018-04-13T13:24:56.049Z,79.55
2018-04-13T13:27:25.196Z,79.61
2018-04-13T13:29:54.305Z,79.32
2018-04-13T13:32:23.435Z,79.22
2018-04-13T13:34:52.530Z,78.24
2018-04-13T13:37:22.465Z,79.09
2018-04-13T13:39:52.333Z,78.99
2018-04-13T13:42:21.468Z,79.34
2018-04-13T13:44:51.350Z,78.89
2018-04-13T13:47:20.477Z,78.90
2018-04-13T13:49:49.617Z,78.77
2018-04-13T13:52:18.743Z,78.90
2018-04-13T13:54:47.885Z,79.78
2018-04-13T13:57:16.989Z,79.12
2018-04-13T13:59:46.142Z,78.76
2018-04-13T14:02:16.010Z,78.34
2018-04-13T14:04:45.126Z,78.93
2018-04-13T14:07:15.003Z,78.61
2018-04-13T14:09:44.132Z,79.14
2018-04-13T14:12:13.243Z,79.68
2018-04-13T14:14:43.163Z,79.35
2018-04-13T14:17:12.274Z,79.85
2018-04-13T14:19:41.423Z,80.19
2018-04-13T14:22:10.545Z,80.39
2018-04-13T14:24:39.647Z,80.08
2018-04-13T14:27:08.769Z,80.21
2018-04-13T14:29:37.882Z,79.95
2018-04-13T14:32:06.989Z,80.30
2018-04-13T14:34:36.089Z,79.99
2018-04-13T14:37:05.232Z,80.69
2018-04-13T14:39:34.358Z,80.44
2018-04-13T14:42:03.510Z,80.74
2018-04-13T14:44:32.670Z,80.96
2018-04-13T14:47:01.821Z,80.94
2018-04-13T14:49:30.949Z,80.90
2018-04-13T14:52:00.082Z,81.33
2018-04-13T14:54:29.973Z,81.05
2018-04-13T14:56:59.083Z,81.01
2018-04-13T14:59:28.213Z,80.97
2018-04-13T15:01:57.941Z,80.78
2018-04-13T15:04:27.091Z,80.41
2018-04-13T15:06:58.229Z,80.45
2018-04-13T15:09:27.358Z,79.91
2018-04-13T15:11:56.461Z,80.14
2018-04-13T15:14:25.651Z,79.87
2018-04-13T15:16:54.721Z,79.82
2018-04-13T15:19:23.853Z,79.45
2018-04-13T15:21:52.983Z,79.85
2018-04-13T15:24:22.887Z,79.63
2018-04-13T15:26:52.018Z,79.32
2018-04-13T15:29:21.137Z,79.11
2018-04-13T15:31:50.282Z,78.91
2018-04-13T15:34:19.448Z,78.69
2018-04-13T15:36:48.565Z,78.61
2018-04-13T15:39:18.441Z,78.55
2018-04-13T15:41:47.578Z,77.77
2018-04-13T15:44:17.445Z,77.94
2018-04-13T15:46:46.577Z,78.16
2018-04-13T15:49:16.449Z,77.28
2018-04-13T15:51:45.597Z,76.61
2018-04-13T15:54:14.704Z,76.10
2018-04-13T15:56:43.799Z,75.78
2018-04-13T15:59:12.982Z,76.20
2018-04-13T16:01:42.061Z,76.50
2018-04-13T16:04:11.978Z,76.05
2018-04-13T16:06:41.893Z,76.34
2018-04-13T16:09:11.018Z,76.75
2018-04-13T16:11:40.142Z,77.07
2018-04-13T16:14:09.280Z,76.77
2018-04-13T16:16:39.145Z,77.38
2018-04-13T16:19:08.297Z,76.89
2018-04-13T16:21:37.422Z,76.87
2018-04-13T16:24:06.566Z,76.84
2018-04-13T16:26:36.433Z,76.80
2018-04-13T16:29:05.611Z,77.24
2018-04-13T16:31:35.531Z,76.36
2018-04-13T16:34:05.448Z,76.60
2018-04-13T16:36:34.556Z,77.30
2018-04-13T16:39:03.730Z,76.30
2018-04-13T16:41:32.873Z,76.29
2018-04-13T16:44:02.021Z,76.17
2018-04-13T16:46:31.158Z,76.30
2018-04-13T16:49:00.299Z,75.91
2018-04-13T16:51:29.432Z,75.99
2018-04-13T16:54:00.005Z,76.15
2018-04-13T16:56:29.888Z,76.66
2018-04-13T16:58:59.006Z,76.64
2018-04-13T17:01:28.900Z,76.58
2018-04-13T17:03:58.934Z,76.88
2018-04-13T17:06:28.037Z,76.95
2018-04-13T17:08:58.125Z,76.77
2018-04-13T17:11:27.253Z,76.88
2018-04-13T17:13:56.411Z,77.04
2018-04-13T17:16:25.519Z,76.95
2018-04-13T17:18:55.411Z,76.40
2018-04-13T17:21:24.533Z,76.28
2018-04-13T17:23:53.677Z,76.29
2018-04-13T17:26:22.801Z,76.42
2018-04-13T17:28:51.931Z,76.82
2018-04-13T17:31:21.073Z,77.04
2018-04-13T17:33:50.193Z,77.27
2018-04-13T17:36:20.097Z,77.46
2018-04-13T17:38:49.981Z,77.75
2018-04-13T17:41:19.120Z,77.86
2018-04-13T17:43:48.240Z,77.75
2018-04-13T17:46:17.369Z,77.72
2018-04-13T17:48:46.467Z,78.23
2018-04-13T17:51:15.598Z,78.46
2018-04-13T17:53:44.726Z,78.59
2018-04-13T17:56:13.849Z,78.97
2018-04-13T17:58:42.981Z,79.28
2018-04-13T18:01:12.903Z,79.31
2018-04-13T18:03:42.052Z,79.29
2018-04-13T18:06:11.211Z,79.54
2018-04-13T18:08:40.326Z,79.88
2018-04-13T18:11:09.482Z,80.38
2018-04-13T18:13:38.590Z,80.38
2018-04-13T18:16:08.493Z,80.79
2018-04-13T18:18:37.610Z,80.86
2018-04-13T18:21:06.724Z,81.08
2018-04-13T18:23:35.856Z,80.92
2018-04-13T18:26:05.745Z,80.92
2018-04-13T18:28:34.840Z,81.20
2018-04-13T18:31:03.997Z,81.23
2018-04-13T18:33:33.157Z,81.55
2018-04-13T18:36:03.068Z,81.66
2018-04-13T18:38:32.223Z,81.86
2018-04-13T18:41:01.375Z,81.72
2018-04-13T18:43:30.500Z,81.60
2018-04-13T18:45:59.663Z,81.59
2018-04-13T18:48:28.840Z,81.65
2018-04-13T18:50:58.426Z,81.46
2018-04-13T18:53:27.581Z,81.27
2018-04-13T18:55:56.728Z,81.11
2018-04-13T18:58:26.602Z,81.08
2018-04-13T19:00:55.758Z,81.28
2018-04-13T19:03:24.904Z,81.33
2018-04-13T19:05:54.036Z,81.13
2018-04-13T19:08:23.193Z,81.05
2018-04-13T19:10:52.319Z,81.09
2018-04-13T19:13:22.246Z,81.38
2018-04-13T19:15:52.266Z,81.31
2018-04-13T19:18:21.404Z,81.52
2018-04-13T19:20:50.584Z,81.66
2018-04-13T19:23:19.740Z,81.72
2018-04-13T19:25:48.858Z,81.66
2018-04-13T19:28:18.593Z,81.64
2018-04-13T19:30:47.709Z,81.64
2018-04-13T19:33:16.882Z,81.81
2018-04-13T19:35:45.991Z,82.07
2018-04-13T19:38:15.143Z,81.51
2018-04-13T19:40:44.253Z,81.35
2018-04-13T19:43:13.443Z,81.25
2018-04-13T19:45:42.581Z,81.20
2018-04-13T19:48:11.694Z,81.47
2018-04-13T19:50:40.852Z,81.64
2018-04-13T19:53:09.982Z,81.60
2018-04-13T19:55:39.894Z,81.60
2018-04-13T19:58:09.026Z,81.42
2018-04-13T20:00:38.165Z,81.66
2018-04-13T20:03:08.060Z,81.50
2018-04-13T20:05:37.214Z,81.51
2018-04-13T20:08:06.355Z,81.53
2018-04-13T20:10:35.517Z,81.64
2018-04-13T20:13:04.682Z,81.80
2018-04-13T20:15:34.577Z,81.82
2018-04-13T20:18:04.503Z,81.59
2018-04-13T20:20:34.520Z,81.67
2018-04-13T20:23:03.656Z,81.22
2018-04-13T20:25:32.826Z,80.73
2018-04-13T20:28:02.718Z,80.56
2018-04-13T20:30:32.650Z,80.47
2018-04-13T20:33:02.537Z,80.18
2018-04-13T20:35:32.486Z,79.84
2018-04-13T20:38:02.433Z,79.39
2018-04-13T20:40:32.578Z,79.41
2018-04-13T20:43:02.488Z,79.51
2018-04-13T20:45:32.407Z,79.62
2018-04-13T20:48:02.310Z,80.06
2018-04-13T20:50:32.213Z,80.27
2018-04-13T20:53:01.395Z,80.39
2018-04-13T20:55:30.553Z,80.36
2018-04-13T20:57:59.662Z,80.48
2018-04-13T21:00:28.825Z,80.69
2018-04-13T21:02:58.827Z,80.81
2018-04-13T21:05:28.744Z,80.65
2018-04-13T21:07:59.332Z,80.68
2018-04-13T21:10:28.450Z,80.74
2018-04-13T21:12:58.593Z,80.64
2018-04-13T21:15:27.756Z,80.55
2018-04-13T21:17:56.904Z,80.71
2018-04-13T21:20:26.037Z,80.74
2018-04-13T21:22:55.184Z,80.72
2018-04-13T21:25:24.380Z,80.63
2018-04-13T21:27:53.505Z,80.61
2018-04-13T21:30:22.812Z,80.29
2018-04-13T21:32:51.930Z,80.26
2018-04-13T21:35:21.847Z,80.49
2018-04-13T21:37:51.746Z,80.35
2018-04-13T21:40:20.902Z,80.35
2018-04-13T21:42:50.169Z,80.44
2018-04-13T21:45:20.037Z,80.21
2018-04-13T21:47:49.159Z,80.13
2018-04-13T21:50:19.055Z,80.20
2018-04-13T21:52:48.174Z,79.83
2018-04-13T21:55:17.311Z,79.47
2018-04-13T21:57:46.435Z,79.75
2018-04-13T22:00:15.576Z,79.91
2018-04-13T22:02:44.696Z,79.82
2018-04-13T22:05:13.833Z,79.93
2018-04-13T22:07:43.729Z,79.66
2018-04-13T22:10:12.867Z,79.34
2018-04-13T22:12:59.525Z,79.57
2018-04-13T22:15:29.464Z,79.93
2018-04-13T22:17:58.727Z,79.57
2018-04-13T22:20:27.882Z,79.79
2018-04-13T22:22:57.013Z,79.55
2018-04-13T22:25:26.117Z,79.63
2018-04-13T22:27:55.275Z,80.07
2018-04-13T22:30:24.413Z,80.31
2018-04-13T22:32:53.520Z,80.04
2018-04-13T22:35:23.405Z,79.90
2018-04-13T22:37:52.561Z,79.68
2018-04-13T22:40:21.661Z,79.49
2018-04-13T22:42:50.802Z,79.72
2018-04-13T22:45:19.905Z,79.68
2018-04-13T22:47:49.800Z,79.97
2018-04-13T22:50:18.915Z,79.52
2018-04-13T22:52:48.829Z,79.49
2018-04-13T22:55:18.690Z,79.12
2018-04-13T22:57:47.835Z,78.73
2018-04-13T23:00:17.703Z,78.47
2018-04-13T23:02:46.817Z,77.71
2018-04-13T23:05:15.949Z,77.85
2018-04-13T23:07:45.086Z,78.63
2018-04-13T23:10:14.195Z,78.47
2018-04-13T23:12:43.317Z,78.93
2018-04-13T23:15:13.241Z,78.74
2018-04-13T23:17:42.304Z,78.76
2018-04-13T23:20:11.421Z,79.06
2018-04-13T23:22:41.302Z,79.17
2018-04-13T23:25:10.415Z,78.89
2018-04-13T23:27:39.526Z,79.04
2018-04-13T23:30:09.412Z,78.95
2018-04-13T23:32:38.516Z,78.80
2018-04-13T23:35:07.607Z,78.44
2018-04-13T23:37:36.719Z,78.41
2018-04-13T23:40:06.589Z,78.93
2018-04-13T23:42:35.697Z,78.66
2018-04-13T23:45:04.793Z,78.51
2018-04-13T23:47:33.909Z,78.56
2018-04-13T23:50:03.784Z,78.68
2018-04-13T23:52:32.898Z,78.25
2018-04-13T23:55:01.994Z,78.55
2018-04-13T23:57:31.881Z,78.63
